Time;durP1;ratioP1;P1;durP2;ratioP2;P2;SDS_P1;SDS_P2;PMS_P1;PMS_P2;Temp;Humidity;BMP_temperature;BMP_pressure;BME280_temperature;BME280_humidity;BME280_pressure;Samples;Min_cycle;Max_cycle;Signal;HPM_P1;HPM_P2
2021/11/26 00:00:10;;;;;;;16.63;9.83;;;;;;;;;;5115411;28;20458;-73
2021/11/26 00:02:38;;;;;;;24.93;11.67;;;;;;;;;;5115095;28;20811;-73
2021/11/26 00:05:07;;;;;;;18.37;8.97;;;;;;;;;;5115565;28;20490;-73
2021/11/26 00:07:35;;;;;;;17.67;9.10;;;;;;;;;;5115251;28;20450;-73
2021/11/26 00:10:03;;;;;;;17.43;8.90;;;;;;;;;;5115331;28;20468;-73
2021/11/26 00:12:33;;;;;;;18.63;10.47;;;;;;;;;;5115465;28;20489;-73
2021/11/26 00:15:18;;;;;;;18.53;9.40;;;;;;;;;;5114531;28;20447;-73
2021/11/26 00:17:50;;;;;;;16.70;7.97;;;;;;;;;;5115047;28;20453;-72
2021/11/26 00:20:18;;;;;;;14.80;7.97;;;;;;;;;;5115376;28;20987;-72
2021/11/26 00:22:46;;;;;;;15.77;8.93;;;;;;;;;;5114894;28;20455;-73
2021/11/26 00:25:13;;;;;;;19.87;9.33;;;;;;;;;;5114692;28;20898;-72
2021/11/26 00:27:43;;;;;;;15.13;7.90;;;;;;;;;;5116025;28;20774;-73
2021/11/26 00:30:11;;;;;;;14.97;8.87;;;;;;;;;;5118498;28;20478;-73
2021/11/26 00:32:39;;;;;;;16.03;8.37;;;;;;;;;;5117730;28;20716;-73
2021/11/26 00:35:07;;;;;;;14.50;6.87;;;;;;;;;;5118311;28;20466;-73
2021/11/26 00:37:38;;;;;;;20.17;8.97;;;;;;;;;;5118603;28;20455;-72
2021/11/26 00:40:06;;;;;;;8.20;6.50;;;;;;;;;;5117573;28;20465;-72
2021/11/26 00:42:34;;;;;;;10.13;5.87;;;;;;;;;;5117888;28;20466;-71
2021/11/26 00:45:03;;;;;;;8.93;6.40;;;;;;;;;;5119292;28;20767;-72
2021/11/26 00:47:31;;;;;;;10.90;5.23;;;;;;;;;;5118252;28;20539;-72
2021/11/26 00:50:02;;;;;;;13.87;5.50;;;;;;;;;;5118646;28;20482;-72
2021/11/26 00:52:29;;;;;;;12.10;6.47;;;;;;;;;;5117957;28;20446;-73
2021/11/26 00:54:57;;;;;;;14.60;7.17;;;;;;;;;;5118739;28;20451;-73
2021/11/26 00:57:28;;;;;;;19.77;9.80;;;;;;;;;;5118212;28;20446;-74
2021/11/26 00:59:57;;;;;;;16.37;9.87;;;;;;;;;;5118963;28;20462;-74
2021/11/26 01:02:26;;;;;;;24.80;10.77;;;;;;;;;;5120461;28;20446;-73
2021/11/26 01:04:54;;;;;;;18.87;9.70;;;;;;;;;;5118997;28;20728;-73
2021/11/26 01:07:21;;;;;;;29.67;11.40;;;;;;;;;;5118374;28;20457;-73
2021/11/26 01:09:49;;;;;;;21.87;11.60;;;;;;;;;;5119356;28;20862;-73
2021/11/26 01:12:22;;;;;;;24.53;12.23;;;;;;;;;;5117969;28;20455;-72
2021/11/26 01:14:50;;;;;;;22.40;11.20;;;;;;;;;;5117719;28;20523;-73
2021/11/26 01:17:18;;;;;;;22.60;11.47;;;;;;;;;;5118836;28;20909;-73
2021/11/26 01:22:41;;;;;;;25.07;11.40;;;;;;;;;;5116105;28;20478;-73
2021/11/26 01:25:09;;;;;;;16.90;10.57;;;;;;;;;;5117796;28;20478;-73
2021/11/26 01:27:37;;;;;;;22.57;11.87;;;;;;;;;;5118773;28;20527;-73
2021/11/26 01:30:12;;;;;;;30.10;11.90;;;;;;;;;;5118646;28;20451;-73
2021/11/26 01:32:39;;;;;;;19.70;10.97;;;;;;;;;;5118975;28;20462;-73
2021/11/26 01:35:09;;;;;;;21.27;10.60;;;;;;;;;;5118782;28;20934;-73
2021/11/26 01:37:39;;;;;;;17.20;10.47;;;;;;;;;;5118683;28;20470;-73
2021/11/26 01:40:07;;;;;;;20.00;10.87;;;;;;;;;;5118909;28;20467;-73
2021/11/26 01:42:37;;;;;;;15.67;9.47;;;;;;;;;;5118742;28;20458;-73
2021/11/26 01:45:06;;;;;;;20.17;10.90;;;;;;;;;;5119096;28;20781;-73
2021/11/26 01:47:34;;;;;;;21.00;9.50;;;;;;;;;;5118590;28;20481;-73
2021/11/26 01:50:02;;;;;;;18.60;9.13;;;;;;;;;;5118294;28;20447;-72
2021/11/26 01:52:45;;;;;;;17.37;9.80;;;;;;;;;;5119055;28;20458;-73
2021/11/26 01:55:17;;;;;;;24.77;11.33;;;;;;;;;;5119423;28;20446;-73
2021/11/26 01:57:45;;;;;;;23.60;11.60;;;;;;;;;;5117553;28;20466;-73
2021/11/26 02:00:14;;;;;;;16.13;10.30;;;;;;;;;;5118615;28;21006;-73
2021/11/26 02:02:41;;;;;;;18.97;10.57;;;;;;;;;;5118102;28;20557;-73
2021/11/26 02:05:09;;;;;;;20.33;10.63;;;;;;;;;;5118002;28;20478;-73
2021/11/26 02:07:38;;;;;;;25.60;11.83;;;;;;;;;;5118376;28;20545;-73
2021/11/26 02:10:06;;;;;;;23.70;11.67;;;;;;;;;;5117861;28;20446;-73
2021/11/26 02:12:35;;;;;;;19.77;9.63;;;;;;;;;;5118023;28;20562;-73
2021/11/26 02:15:03;;;;;;;21.67;11.20;;;;;;;;;;5118354;28;20447;-75
2021/11/26 02:17:31;;;;;;;16.60;10.23;;;;;;;;;;5118482;28;20521;-74
2021/11/26 02:20:00;;;;;;;25.73;12.80;;;;;;;;;;5117430;28;20536;-73
2021/11/26 02:22:28;;;;;;;20.27;10.70;;;;;;;;;;5117163;28;20494;-74
2021/11/26 02:24:55;;;;;;;19.40;10.10;;;;;;;;;;5116891;28;20474;-74
2021/11/26 02:27:23;;;;;;;21.07;9.97;;;;;;;;;;5117357;28;20874;-73
2021/11/26 02:29:55;;;;;;;23.70;11.10;;;;;;;;;;5117531;28;20468;-73
2021/11/26 02:32:24;;;;;;;27.50;10.63;;;;;;;;;;5117900;28;20714;-73
2021/11/26 02:34:54;;;;;;;19.50;12.73;;;;;;;;;;5117642;28;20754;-73
2021/11/26 02:37:23;;;;;;;20.93;10.27;;;;;;;;;;5118311;28;20462;-73
2021/11/26 02:39:50;;;;;;;20.33;9.93;;;;;;;;;;5117874;28;20458;-73
2021/11/26 02:42:25;;;;;;;16.53;9.50;;;;;;;;;;5118028;28;20580;-73
2021/11/26 02:44:53;;;;;;;21.87;11.20;;;;;;;;;;5117224;28;20469;-73
2021/11/26 02:47:20;;;;;;;24.23;13.00;;;;;;;;;;5119004;28;20454;-74
2021/11/26 02:49:48;;;;;;;20.57;11.53;;;;;;;;;;5117852;28;20453;-73
2021/11/26 02:52:16;;;;;;;14.37;9.57;;;;;;;;;;5118100;28;20528;-73
2021/11/26 02:54:45;;;;;;;20.10;8.90;;;;;;;;;;5118597;28;20446;-73
2021/11/26 02:57:13;;;;;;;16.07;10.37;;;;;;;;;;5117870;28;20456;-73
2021/11/26 02:59:42;;;;;;;23.73;11.47;;;;;;;;;;5118283;28;20447;-73
2021/11/26 03:02:10;;;;;;;22.83;10.07;;;;;;;;;;5117786;28;20531;-73
2021/11/26 03:04:37;;;;;;;27.50;11.80;;;;;;;;;;5118181;28;20497;-73
2021/11/26 03:07:06;;;;;;;27.27;11.30;;;;;;;;;;5117779;28;20461;-73
2021/11/26 03:09:34;;;;;;;27.47;12.40;;;;;;;;;;5118632;28;20455;-73
2021/11/26 03:12:03;;;;;;;19.50;9.87;;;;;;;;;;5118663;28;20504;-73
2021/11/26 03:14:31;;;;;;;22.70;12.37;;;;;;;;;;5119038;28;20846;-73
2021/11/26 03:16:59;;;;;;;19.03;9.70;;;;;;;;;;5118429;28;20825;-73
2021/11/26 03:19:27;;;;;;;16.83;9.80;;;;;;;;;;5118029;28;20446;-73
2021/11/26 03:21:54;;;;;;;18.30;11.33;;;;;;;;;;5118096;28;20463;-73
2021/11/26 03:24:22;;;;;;;16.00;9.83;;;;;;;;;;5118047;28;20435;-73
2021/11/26 03:26:50;;;;;;;21.97;11.47;;;;;;;;;;5118104;28;20458;-72
2021/11/26 03:29:19;;;;;;;29.27;11.60;;;;;;;;;;5119296;28;20828;-72
2021/11/26 03:31:47;;;;;;;19.37;9.27;;;;;;;;;;5118619;28;20480;-72
2021/11/26 03:34:14;;;;;;;23.57;11.70;;;;;;;;;;5118888;28;20439;-72
2021/11/26 03:36:46;;;;;;;22.60;9.80;;;;;;;;;;5119484;28;20442;-72
2021/11/26 03:39:14;;;;;;;21.60;11.97;;;;;;;;;;5117971;28;20453;-72
2021/11/26 03:41:42;;;;;;;19.00;12.03;;;;;;;;;;5118236;28;20446;-72
2021/11/26 03:44:09;;;;;;;13.77;8.17;;;;;;;;;;5118219;28;20843;-72
2021/11/26 03:46:39;;;;;;;18.10;11.10;;;;;;;;;;5117211;28;20558;-73
2021/11/26 03:49:06;;;;;;;18.83;10.60;;;;;;;;;;5117324;28;20447;-73
2021/11/26 03:51:34;;;;;;;20.97;12.00;;;;;;;;;;5117475;28;20523;-72
2021/11/26 03:54:05;;;;;;;23.10;11.97;;;;;;;;;;5117165;28;20499;-73
2021/11/26 03:56:32;;;;;;;17.90;11.13;;;;;;;;;;5117110;28;20523;-72
2021/11/26 03:59:00;;;;;;;21.60;10.60;;;;;;;;;;5117311;28;20511;-72
2021/11/26 04:01:28;;;;;;;22.43;10.43;;;;;;;;;;5117769;28;20455;-72
2021/11/26 04:03:58;;;;;;;22.63;12.83;;;;;;;;;;5119703;28;20482;-72
2021/11/26 04:06:26;;;;;;;24.40;11.90;;;;;;;;;;5120880;28;20522;-72
2021/11/26 04:08:54;;;;;;;27.10;11.87;;;;;;;;;;5121635;28;20731;-72
2021/11/26 04:11:21;;;;;;;24.53;6.67;;;;;;;;;;5120511;28;20998;-72
2021/11/26 04:13:49;;;;;;;21.93;11.57;;;;;;;;;;5120451;28;20481;-72
2021/11/26 04:16:17;;;;;;;27.10;13.77;;;;;;;;;;5119884;28;20461;-72
2021/11/26 04:18:48;;;;;;;27.00;10.43;;;;;;;;;;5120308;28;20530;-72
2021/11/26 04:21:17;;;;;;;26.93;14.57;;;;;;;;;;5120543;28;20454;-72
2021/11/26 04:23:47;;;;;;;26.60;13.43;;;;;;;;;;5120258;28;20492;-72
2021/11/26 04:26:14;;;;;;;34.67;12.53;;;;;;;;;;5100540;28;20491;-73
2021/11/26 04:28:42;;;;;;;20.17;9.23;;;;;;;;;;5099570;28;20452;-73
2021/11/26 04:31:10;;;;;;;25.67;13.70;;;;;;;;;;5100215;28;20804;-73
2021/11/26 04:33:38;;;;;;;16.47;9.60;;;;;;;;;;5102423;28;20436;-72
2021/11/26 04:36:06;;;;;;;20.50;11.40;;;;;;;;;;5100283;28;20844;-73
2021/11/26 04:38:35;;;;;;;26.20;13.50;;;;;;;;;;5100473;28;20789;-72
2021/11/26 04:41:03;;;;;;;21.07;10.47;;;;;;;;;;5099942;28;20459;-74
2021/11/26 04:43:31;;;;;;;14.60;8.43;;;;;;;;;;5100057;28;20458;-71
2021/11/26 04:45:59;;;;;;;16.80;7.83;;;;;;;;;;5099892;28;20483;-71
2021/11/26 04:48:27;;;;;;;20.23;9.73;;;;;;;;;;5099569;28;20880;-72
2021/11/26 04:50:54;;;;;;;24.37;10.90;;;;;;;;;;5099141;28;20473;-72
2021/11/26 04:53:25;;;;;;;23.37;12.33;;;;;;;;;;5099506;28;20455;-72
2021/11/26 04:55:54;;;;;;;19.00;11.43;;;;;;;;;;5099255;28;20854;-72
2021/11/26 04:58:22;;;;;;;21.97;10.60;;;;;;;;;;5099670;28;20452;-72
2021/11/26 05:00:50;;;;;;;23.03;12.50;;;;;;;;;;5099074;28;20516;-71
2021/11/26 05:03:17;;;;;;;26.67;12.77;;;;;;;;;;5099029;28;20731;-72
2021/11/26 05:05:45;;;;;;;17.00;9.90;;;;;;;;;;5099575;28;20761;-72
2021/11/26 05:08:16;;;;;;;23.10;11.23;;;;;;;;;;5099510;28;20735;-72
2021/11/26 05:10:50;;;;;;;18.90;10.87;;;;;;;;;;5098984;28;20473;-72
2021/11/26 05:13:20;;;;;;;24.97;11.43;;;;;;;;;;5099375;28;20528;-72
2021/11/26 05:15:48;;;;;;;21.77;11.70;;;;;;;;;;5098881;28;20523;-72
2021/11/26 05:18:16;;;;;;;18.33;10.30;;;;;;;;;;5111070;28;20696;-72
2021/11/26 05:20:44;;;;;;;25.00;11.87;;;;;;;;;;5119639;28;20447;-72
2021/11/26 05:23:12;;;;;;;25.50;11.47;;;;;;;;;;5118876;28;20862;-72
2021/11/26 05:25:40;;;;;;;23.63;11.93;;;;;;;;;;5120176;28;20543;-72
2021/11/26 05:28:07;;;;;;;25.30;11.40;;;;;;;;;;5118909;28;20486;-72
2021/11/26 05:30:37;;;;;;;20.23;9.40;;;;;;;;;;5118837;28;20490;-72
2021/11/26 05:33:04;;;;;;;22.07;9.70;;;;;;;;;;5119307;28;20487;-72
2021/11/26 05:35:32;;;;;;;23.37;12.57;;;;;;;;;;5118492;28;20454;-72
2021/11/26 05:38:00;;;;;;;20.47;8.67;;;;;;;;;;5118842;28;20451;-72
2021/11/26 05:40:27;;;;;;;19.37;10.47;;;;;;;;;;5118884;28;20466;-72
2021/11/26 05:43:04;;;;;;;19.63;9.63;;;;;;;;;;5118701;28;20451;-72
2021/11/26 05:45:33;;;;;;;20.17;12.40;;;;;;;;;;5118019;28;20835;-72
2021/11/26 05:48:04;;;;;;;23.13;10.33;;;;;;;;;;5118546;28;20473;-72
2021/11/26 05:50:33;;;;;;;15.37;8.53;;;;;;;;;;5118438;28;20462;-72
2021/11/26 05:53:01;;;;;;;18.33;10.10;;;;;;;;;;5118749;28;20466;-72
2021/11/26 05:55:31;;;;;;;12.47;7.07;;;;;;;;;;5118280;28;20447;-72
2021/11/26 05:57:59;;;;;;;22.80;12.50;;;;;;;;;;5117991;28;20459;-72
2021/11/26 06:00:27;;;;;;;18.70;9.70;;;;;;;;;;5118543;28;20873;-72
2021/11/26 06:02:55;;;;;;;19.50;9.60;;;;;;;;;;5117561;28;20447;-72
2021/11/26 06:05:25;;;;;;;21.73;10.97;;;;;;;;;;5117423;28;20455;-72
2021/11/26 06:07:52;;;;;;;46.43;15.40;;;;;;;;;;5116809;28;20809;-72
2021/11/26 06:10:20;;;;;;;19.50;10.30;;;;;;;;;;5115673;28;20636;-72
2021/11/26 06:12:49;;;;;;;23.40;10.13;;;;;;;;;;5115811;28;20459;-72
2021/11/26 06:15:17;;;;;;;21.30;11.20;;;;;;;;;;5116601;28;21504;-73
2021/11/26 06:17:45;;;;;;;24.77;9.17;;;;;;;;;;5117391;28;20750;-72
2021/11/26 06:20:14;;;;;;;15.87;9.33;;;;;;;;;;5116631;28;20473;-72
2021/11/26 06:22:43;;;;;;;11.43;8.93;;;;;;;;;;5116087;28;20458;-73
2021/11/26 06:25:13;;;;;;;23.17;9.67;;;;;;;;;;5116418;28;20457;-72
2021/11/26 06:27:41;;;;;;;19.47;10.17;;;;;;;;;;5116763;28;21130;-72
2021/11/26 06:30:11;;;;;;;27.83;12.20;;;;;;;;;;5115951;28;20734;-72
2021/11/26 06:32:40;;;;;;;22.43;12.00;;;;;;;;;;5116050;28;20465;-73
2021/11/26 06:35:08;;;;;;;19.07;9.30;;;;;;;;;;5115708;28;20461;-72
2021/11/26 06:37:36;;;;;;;21.43;10.50;;;;;;;;;;5115529;28;20523;-71
2021/11/26 06:40:07;;;;;;;22.07;10.80;;;;;;;;;;5115037;28;20475;-71
2021/11/26 06:42:35;;;;;;;16.10;8.97;;;;;;;;;;5116579;28;20479;-71
2021/11/26 06:45:03;;;;;;;18.57;9.63;;;;;;;;;;5114523;28;20454;-72
2021/11/26 06:47:32;;;;;;;19.20;10.67;;;;;;;;;;5116153;28;20551;-73
2021/11/26 06:49:59;;;;;;;22.57;9.43;;;;;;;;;;5114046;28;20454;-71
2021/11/26 06:52:27;;;;;;;24.33;11.67;;;;;;;;;;5115796;28;20492;-72
2021/11/26 06:54:56;;;;;;;22.33;10.43;;;;;;;;;;5116164;28;20490;-72
2021/11/26 06:57:25;;;;;;;27.80;11.27;;;;;;;;;;5115028;28;20550;-72
2021/11/26 06:59:53;;;;;;;21.80;11.00;;;;;;;;;;5115454;28;20443;-72
2021/11/26 07:02:22;;;;;;;23.10;11.20;;;;;;;;;;5115210;28;20470;-72
2021/11/26 07:04:50;;;;;;;29.60;14.13;;;;;;;;;;5114240;28;20455;-72
2021/11/26 07:07:21;;;;;;;23.87;12.50;;;;;;;;;;5115385;28;21110;-72
2021/11/26 07:09:49;;;;;;;17.03;8.47;;;;;;;;;;5114818;28;20553;-72
2021/11/26 07:12:17;;;;;;;26.13;12.90;;;;;;;;;;5113894;28;20461;-72
2021/11/26 07:14:47;;;;;;;22.53;11.20;;;;;;;;;;5097798;28;20526;-72
2021/11/26 07:17:18;;;;;;;21.07;9.50;;;;;;;;;;5096834;28;20479;-72
2021/11/26 07:19:47;;;;;;;20.50;10.10;;;;;;;;;;5096751;28;20523;-73
2021/11/26 07:22:16;;;;;;;18.80;10.30;;;;;;;;;;5095711;28;20586;-76
2021/11/26 07:24:44;;;;;;;16.60;8.53;;;;;;;;;;5095794;28;20439;-72
2021/11/26 07:27:12;;;;;;;22.17;13.90;;;;;;;;;;5096855;28;20518;-72
2021/11/26 07:29:45;;;;;;;15.83;7.77;;;;;;;;;;5114898;28;20920;-72
2021/11/26 07:32:17;;;;;;;12.87;8.03;;;;;;;;;;5116985;28;20538;-71
2021/11/26 07:34:53;;;;;;;18.77;9.63;;;;;;;;;;5115688;28;20758;-73
2021/11/26 07:37:25;;;;;;;18.80;10.30;;;;;;;;;;5097509;28;20954;-72
2021/11/26 07:39:53;;;;;;;16.73;8.87;;;;;;;;;;5099916;28;20447;-72
2021/11/26 07:42:21;;;;;;;22.07;9.50;;;;;;;;;;5112075;28;20512;-75
2021/11/26 07:44:51;;;;;;;21.27;9.57;;;;;;;;;;5120176;28;20799;-72
2021/11/26 07:47:21;;;;;;;18.00;9.57;;;;;;;;;;5117064;28;20484;-73
2021/11/26 07:49:52;;;;;;;15.93;8.10;;;;;;;;;;5119499;28;20461;-71
2021/11/26 07:52:21;;;;;;;10.70;5.30;;;;;;;;;;5118920;28;20442;-70
2021/11/26 07:54:51;;;;;;;11.30;6.57;;;;;;;;;;5119444;28;20537;-71
2021/11/26 07:57:21;;;;;;;11.60;7.70;;;;;;;;;;5118791;28;20454;-70
2021/11/26 07:59:54;;;;;;;22.30;8.83;;;;;;;;;;5100444;28;20449;-71
2021/11/26 08:02:30;;;;;;;15.97;7.63;;;;;;;;;;5098326;28;20518;-71
2021/11/26 08:05:01;;;;;;;19.67;8.57;;;;;;;;;;5106747;28;20439;-72
2021/11/26 08:07:29;;;;;;;19.13;9.07;;;;;;;;;;5119345;28;20482;-73
2021/11/26 08:09:57;;;;;;;14.03;7.40;;;;;;;;;;5118901;28;20442;-73
2021/11/26 08:12:28;;;;;;;15.00;7.40;;;;;;;;;;5118856;28;20735;-72
2021/11/26 08:14:57;;;;;;;21.53;9.20;;;;;;;;;;5117886;28;20917;-71
2021/11/26 08:17:30;;;;;;;16.90;9.00;;;;;;;;;;5120248;28;20457;-73
2021/11/26 08:19:58;;;;;;;14.37;7.63;;;;;;;;;;5098789;28;20447;-72
2021/11/26 08:22:26;;;;;;;19.63;7.67;;;;;;;;;;5098950;28;20483;-72
2021/11/26 08:24:54;;;;;;;13.57;9.13;;;;;;;;;;5098990;28;20452;-72
2021/11/26 08:27:22;;;;;;;17.20;9.03;;;;;;;;;;5098858;28;21099;-72
2021/11/26 08:29:50;;;;;;;26.40;11.60;;;;;;;;;;5099061;28;20817;-72
2021/11/26 08:32:18;;;;;;;15.17;7.97;;;;;;;;;;5098668;28;20453;-71
2021/11/26 08:34:47;;;;;;;14.63;8.83;;;;;;;;;;5097992;28;20467;-72
2021/11/26 08:37:17;;;;;;;14.17;8.53;;;;;;;;;;5099226;28;20443;-71
2021/11/26 08:39:45;;;;;;;15.70;10.63;;;;;;;;;;5098282;28;20451;-72
2021/11/26 08:42:13;;;;;;;17.00;9.57;;;;;;;;;;5098077;28;20904;-72
2021/11/26 08:44:41;;;;;;;21.13;9.90;;;;;;;;;;5113279;28;20466;-72
2021/11/26 08:47:09;;;;;;;20.40;9.60;;;;;;;;;;5119490;28;20518;-72
2021/11/26 08:49:36;;;;;;;19.43;9.70;;;;;;;;;;5114377;28;20876;-72
2021/11/26 08:52:20;;;;;;;19.30;9.63;;;;;;;;;;5117816;28;20449;-73
2021/11/26 08:54:47;;;;;;;19.87;9.90;;;;;;;;;;5118677;28;20455;-72
2021/11/26 08:57:17;;;;;;;18.23;8.87;;;;;;;;;;5118083;28;20839;-72
2021/11/26 08:59:46;;;;;;;21.50;11.27;;;;;;;;;;5113123;28;20470;-73
2021/11/26 09:02:16;;;;;;;19.40;9.20;;;;;;;;;;5097545;28;20452;-72
2021/11/26 09:04:44;;;;;;;14.53;7.63;;;;;;;;;;5098634;28;20451;-73
2021/11/26 09:07:14;;;;;;;13.97;8.63;;;;;;;;;;5098344;28;20498;-72
2021/11/26 09:09:42;;;;;;;19.03;9.50;;;;;;;;;;5097962;28;20550;-71
2021/11/26 09:12:11;;;;;;;14.77;7.60;;;;;;;;;;5098280;28;20451;-73
2021/11/26 09:14:39;;;;;;;15.57;8.23;;;;;;;;;;5099042;28;20452;-72
2021/11/26 09:17:14;;;;;;;17.77;8.70;;;;;;;;;;5098257;28;20454;-73
2021/11/26 09:19:43;;;;;;;16.37;8.47;;;;;;;;;;5097340;28;20762;-72
2021/11/26 09:22:14;;;;;;;15.20;10.10;;;;;;;;;;5097228;28;20459;-74
2021/11/26 09:24:43;;;;;;;25.13;11.57;;;;;;;;;;5098005;28;20463;-74
2021/11/26 09:27:11;;;;;;;15.27;10.37;;;;;;;;;;5098074;28;20548;-75
2021/11/26 09:29:44;;;;;;;15.73;9.80;;;;;;;;;;5097449;28;21111;-74
2021/11/26 09:32:12;;;;;;;17.17;9.03;;;;;;;;;;5117228;28;20740;-73
2021/11/26 09:34:46;;;;;;;21.00;9.17;;;;;;;;;;5113359;28;20454;-73
2021/11/26 09:37:18;;;;;;;18.73;8.63;;;;;;;;;;5118279;28;20449;-73
2021/11/26 09:39:48;;;;;;;17.47;9.00;;;;;;;;;;5115712;28;20487;-72
2021/11/26 09:42:19;;;;;;;19.50;10.67;;;;;;;;;;5117081;28;20479;-72
2021/11/26 09:44:55;;;;;;;23.77;11.27;;;;;;;;;;5109622;28;20515;-72
2021/11/26 09:47:26;;;;;;;24.00;10.73;;;;;;;;;;5100696;28;20471;-72
2021/11/26 09:50:01;;;;;;;18.93;8.60;;;;;;;;;;5103802;28;20528;-73
2021/11/26 09:52:34;;;;;;;22.50;11.07;;;;;;;;;;5114186;28;20450;-73
2021/11/26 09:55:06;;;;;;;19.40;9.90;;;;;;;;;;5116260;28;20937;-73
2021/11/26 09:57:38;;;;;;;19.07;10.17;;;;;;;;;;5107002;28;20460;-72
2021/11/26 10:00:17;;;;;;;31.03;12.77;;;;;;;;;;5112962;28;20466;-72
2021/11/26 10:02:56;;;;;;;26.03;13.43;;;;;;;;;;5111606;28;20843;-72
2021/11/26 10:05:25;;;;;;;22.63;11.53;;;;;;;;;;5117076;28;20446;-71
2021/11/26 10:07:53;;;;;;;24.97;14.30;;;;;;;;;;5113300;28;20509;-71
2021/11/26 10:10:25;;;;;;;23.10;13.87;;;;;;;;;;5115446;28;20451;-73
2021/11/26 10:13:01;;;;;;;29.37;13.97;;;;;;;;;;5117724;28;20466;-72
2021/11/26 10:15:37;;;;;;;31.57;14.43;;;;;;;;;;5096728;28;20539;-70
2021/11/26 10:18:12;;;;;;;33.83;15.77;;;;;;;;;;5113826;28;20446;-72
2021/11/26 10:20:52;;;;;;;24.57;13.97;;;;;;;;;;5117286;28;20454;-72
2021/11/26 10:23:23;;;;;;;31.67;13.27;;;;;;;;;;5116855;28;20458;-72
2021/11/26 10:25:53;;;;;;;24.67;13.93;;;;;;;;;;5117358;28;20535;-72
2021/11/26 10:28:22;;;;;;;28.37;13.37;;;;;;;;;;5117856;28;20528;-71
2021/11/26 10:30:54;;;;;;;33.00;14.17;;;;;;;;;;5115512;28;20450;-71
2021/11/26 10:33:25;;;;;;;25.17;11.97;;;;;;;;;;5116954;28;20454;-71
2021/11/26 10:35:56;;;;;;;28.73;13.73;;;;;;;;;;5111569;28;20466;-71
2021/11/26 10:38:26;;;;;;;32.90;12.70;;;;;;;;;;5116475;28;20443;-71
2021/11/26 10:41:04;;;;;;;32.90;13.20;;;;;;;;;;5111902;28;20455;-72
2021/11/26 10:43:48;;;;;;;30.60;13.47;;;;;;;;;;5107621;28;20534;-73
2021/11/26 10:46:41;;;;;;;22.70;12.07;;;;;;;;;;5115681;28;20451;-71
2021/11/26 10:52:17;;;;;;;29.33;12.07;;;;;;;;;;5080631;28;20883;-72
2021/11/26 10:57:45;;;;;;;27.03;12.27;;;;;;;;;;5116262;28;20475;-72
2021/11/26 11:00:14;;;;;;;27.73;14.10;;;;;;;;;;5116907;28;20863;-72
2021/11/26 11:02:45;;;;;;;30.20;12.97;;;;;;;;;;5109525;28;20452;-72
2021/11/26 11:05:17;;;;;;;19.70;11.03;;;;;;;;;;5095554;28;20465;-72
2021/11/26 11:07:46;;;;;;;27.27;14.27;;;;;;;;;;5088691;28;20486;-72
2021/11/26 11:10:16;;;;;;;32.90;14.03;;;;;;;;;;5117089;28;20516;-71
2021/11/26 11:12:48;;;;;;;26.27;11.67;;;;;;;;;;5116740;28;20465;-72
2021/11/26 11:15:17;;;;;;;27.73;14.83;;;;;;;;;;5117036;28;20451;-71
2021/11/26 11:17:47;;;;;;;27.43;13.53;;;;;;;;;;5116259;28;20545;-72
2021/11/26 11:20:16;;;;;;;28.83;12.40;;;;;;;;;;5115406;28;20798;-71
2021/11/26 11:22:48;;;;;;;25.43;13.80;;;;;;;;;;5092372;28;20462;-71
2021/11/26 11:25:17;;;;;;;23.43;12.80;;;;;;;;;;5097195;28;20444;-72
2021/11/26 11:27:46;;;;;;;31.87;15.90;;;;;;;;;;5097154;28;20940;-72
2021/11/26 11:30:15;;;;;;;27.90;14.53;;;;;;;;;;5095217;28;20939;-73
2021/11/26 11:32:56;;;;;;;30.93;13.43;;;;;;;;;;5096049;28;20526;-71
2021/11/26 11:35:25;;;;;;;34.43;15.10;;;;;;;;;;5079257;28;20489;-71
2021/11/26 11:37:54;;;;;;;37.00;17.63;;;;;;;;;;5086296;28;20744;-72
2021/11/26 11:40:32;;;;;;;28.57;15.67;;;;;;;;;;5092380;28;20960;-69
2021/11/26 11:43:15;;;;;;;19.93;11.27;;;;;;;;;;5084152;28;20618;-72
2021/11/26 11:45:54;;;;;;;28.20;14.70;;;;;;;;;;5096024;28;20489;-72
2021/11/26 11:48:27;;;;;;;30.17;14.00;;;;;;;;;;5084987;28;20467;-72
2021/11/26 11:50:55;;;;;;;18.63;9.80;;;;;;;;;;5095078;28;20440;-72
2021/11/26 11:53:40;;;;;;;27.83;10.97;;;;;;;;;;5090028;28;20459;-72
2021/11/26 11:56:24;;;;;;;26.57;13.50;;;;;;;;;;5094864;28;20557;-72
2021/11/26 11:58:56;;;;;;;18.40;12.53;;;;;;;;;;5076716;28;20471;-73
2021/11/26 12:01:26;;;;;;;20.40;11.60;;;;;;;;;;5092778;28;20482;-72
2021/11/26 12:03:59;;;;;;;25.63;10.83;;;;;;;;;;5094293;28;20463;-71
2021/11/26 12:06:38;;;;;;;24.50;10.83;;;;;;;;;;5079038;28;20875;-72
2021/11/26 12:09:05;;;;;;;20.30;11.60;;;;;;;;;;5079255;28;20483;-72
2021/11/26 12:11:35;;;;;;;18.93;9.90;;;;;;;;;;5093302;28;20828;-73
2021/11/26 12:14:07;;;;;;;22.13;11.50;;;;;;;;;;5092544;28;20463;-72
2021/11/26 12:16:46;;;;;;;19.60;11.67;;;;;;;;;;5094028;28;20459;-72
2021/11/26 12:19:23;;;;;;;17.50;9.30;;;;;;;;;;5096124;28;20448;-71
2021/11/26 12:21:52;;;;;;;19.97;9.53;;;;;;;;;;5095126;28;20557;-71
2021/11/26 12:24:33;;;;;;;16.63;10.10;;;;;;;;;;5079018;28;20464;-73
2021/11/26 12:27:20;;;;;;;24.47;8.23;;;;;;;;;;5089678;28;20900;-71
2021/11/26 12:29:53;;;;;;;16.13;9.90;;;;;;;;;;5096764;28;20455;-72
2021/11/26 12:32:22;;;;;;;11.77;7.40;;;;;;;;;;5094469;28;20452;-71
2021/11/26 12:34:56;;;;;;;13.13;9.00;;;;;;;;;;5089110;28;20456;-72
2021/11/26 12:37:28;;;;;;;10.40;5.93;;;;;;;;;;5078312;28;20463;-71
2021/11/26 12:40:06;;;;;;;9.00;5.87;;;;;;;;;;5091261;28;20943;-70
2021/11/26 12:42:41;;;;;;;10.47;7.93;;;;;;;;;;5096926;28;20495;-71
2021/11/26 12:45:12;;;;;;;10.03;6.50;;;;;;;;;;5097166;28;20440;-70
2021/11/26 12:47:43;;;;;;;11.17;6.67;;;;;;;;;;5097362;28;21048;-71
2021/11/26 12:53:11;;;;;;;12.10;7.10;;;;;;;;;;5097167;28;20431;-71
2021/11/26 12:55:44;;;;;;;15.20;8.27;;;;;;;;;;5096882;28;20466;-72
2021/11/26 12:58:20;;;;;;;9.87;6.97;;;;;;;;;;5090955;28;20447;-73
2021/11/26 13:00:59;;;;;;;9.50;6.23;;;;;;;;;;5061465;28;20751;-73
2021/11/26 13:03:33;;;;;;;10.10;5.70;;;;;;;;;;5096772;28;20463;-72
2021/11/26 13:06:02;;;;;;;9.13;5.80;;;;;;;;;;5098304;28;20496;-71
2021/11/26 13:08:32;;;;;;;8.50;4.83;;;;;;;;;;5094750;28;20483;-72
2021/11/26 13:11:04;;;;;;;10.67;5.53;;;;;;;;;;5099300;28;20448;-71
2021/11/26 13:13:38;;;;;;;7.73;4.57;;;;;;;;;;5096226;28;20448;-72
2021/11/26 13:16:25;;;;;;;8.63;4.47;;;;;;;;;;5098498;28;20442;-72
2021/11/26 13:18:54;;;;;;;9.60;5.77;;;;;;;;;;5097217;28;20452;-72
2021/11/26 13:21:21;;;;;;;15.60;6.40;;;;;;;;;;5096339;28;21111;-72
2021/11/26 13:23:53;;;;;;;6.40;3.97;;;;;;;;;;5080573;28;20480;-72
2021/11/26 13:26:22;;;;;;;6.90;4.10;;;;;;;;;;5084192;28;20552;-71
2021/11/26 13:28:54;;;;;;;7.87;4.47;;;;;;;;;;5094268;28;20539;-71
2021/11/26 13:31:30;;;;;;;7.90;4.77;;;;;;;;;;5089202;28;20472;-71
2021/11/26 13:34:25;;;;;;;5.77;3.97;;;;;;;;;;5093928;28;20497;-72
2021/11/26 13:36:53;;;;;;;4.90;2.93;;;;;;;;;;5078360;28;20525;-72
2021/11/26 13:39:26;;;;;;;6.60;4.47;;;;;;;;;;5080390;28;20506;-72
2021/11/26 13:41:56;;;;;;;5.07;3.07;;;;;;;;;;5096518;28;20457;-71
2021/11/26 13:44:25;;;;;;;4.30;2.83;;;;;;;;;;5077191;28;20453;-71
2021/11/26 13:47:04;;;;;;;7.27;4.70;;;;;;;;;;5077078;28;20459;-72
2021/11/26 13:49:32;;;;;;;5.83;4.20;;;;;;;;;;5075304;28;20976;-72
2021/11/26 13:52:05;;;;;;;6.73;4.03;;;;;;;;;;5076074;28;20453;-71
2021/11/26 13:54:36;;;;;;;6.83;4.93;;;;;;;;;;5074322;28;20440;-71
2021/11/26 13:57:04;;;;;;;8.63;4.90;;;;;;;;;;5076620;28;20879;-72
2021/11/26 13:59:34;;;;;;;8.57;4.20;;;;;;;;;;5090793;28;20518;-72
2021/11/26 14:02:20;;;;;;;10.70;6.20;;;;;;;;;;5095323;28;20444;-71
2021/11/26 14:04:55;;;;;;;8.20;5.43;;;;;;;;;;5095425;28;20916;-71
2021/11/26 14:07:27;;;;;;;12.33;4.00;;;;;;;;;;5096023;28;20512;-72
2021/11/26 14:10:09;;;;;;;5.83;3.83;;;;;;;;;;5096789;28;20778;-72
2021/11/26 14:12:42;;;;;;;7.67;4.80;;;;;;;;;;5096937;28;20447;-71
2021/11/26 14:15:23;;;;;;;18.10;11.80;;;;;;;;;;5096396;28;20524;-71
2021/11/26 14:17:53;;;;;;;7.47;5.07;;;;;;;;;;5096121;28;20511;-71
2021/11/26 14:20:26;;;;;;;7.20;4.93;;;;;;;;;;5079584;28;20448;-72
2021/11/26 14:22:55;;;;;;;6.90;4.47;;;;;;;;;;5095225;28;20460;-71
2021/11/26 14:25:23;;;;;;;5.83;3.80;;;;;;;;;;5095477;28;20453;-71
2021/11/26 14:27:56;;;;;;;5.17;3.97;;;;;;;;;;5095882;28;20459;-70
2021/11/26 14:30:30;;;;;;;8.80;5.10;;;;;;;;;;5095171;28;20448;-70
2021/11/26 14:33:02;;;;;;;7.83;5.40;;;;;;;;;;5094748;28;20482;-72
2021/11/26 14:35:33;;;;;;;4.93;3.67;;;;;;;;;;5095563;28;20452;-72
2021/11/26 14:38:03;;;;;;;8.20;4.60;;;;;;;;;;5095525;28;20458;-72
2021/11/26 14:40:32;;;;;;;7.47;4.00;;;;;;;;;;5094953;28;21233;-71
2021/11/26 14:43:08;;;;;;;6.43;3.67;;;;;;;;;;5095458;28;20443;-71
2021/11/26 14:45:39;;;;;;;7.87;5.23;;;;;;;;;;5094098;28;20487;-72
2021/11/26 14:48:16;;;;;;;6.97;4.30;;;;;;;;;;5093951;28;20475;-71
2021/11/26 14:50:44;;;;;;;8.53;4.20;;;;;;;;;;5093438;28;20467;-72
2021/11/26 14:53:20;;;;;;;10.20;6.17;;;;;;;;;;5093598;28;20519;-71
2021/11/26 14:55:48;;;;;;;8.43;5.73;;;;;;;;;;5095149;28;20888;-71